createdAt,value
2018-11-21T00:00:18.631Z,931.90
2018-11-21T00:01:26.692Z,931.87
2018-11-21T00:02:34.750Z,931.94
2018-11-21T00:03:42.889Z,931.92
2018-11-21T00:04:50.849Z,931.93
2018-11-21T00:05:58.940Z,931.92
2018-11-21T00:07:06.960Z,931.86
2018-11-21T00:08:15.136Z,931.86
2018-11-21T00:09:23.084Z,931.89
2018-11-21T00:10:31.124Z,931.89
2018-11-21T00:11:39.191Z,931.95
2018-11-21T00:12:47.261Z,931.87
2018-11-21T00:13:55.384Z,931.85
2018-11-21T00:15:03.349Z,931.86
2018-11-21T00:16:11.417Z,931.84
2018-11-21T00:17:19.471Z,931.86
2018-11-21T00:18:27.508Z,931.80
2018-11-21T00:19:35.627Z,931.78
2018-11-21T00:20:43.612Z,931.75
2018-11-21T00:21:51.688Z,931.81
2018-11-21T00:22:59.758Z,931.79
2018-11-21T00:24:07.907Z,931.81
2018-11-21T00:25:15.854Z,931.82
2018-11-21T00:26:23.886Z,931.76
2018-11-21T00:27:31.982Z,931.85
2018-11-21T00:28:40.038Z,931.80
2018-11-21T00:29:48.180Z,931.79
2018-11-21T00:30:56.128Z,931.79
2018-11-21T00:32:04.195Z,931.81
2018-11-21T00:33:12.246Z,931.77
2018-11-21T00:34:20.306Z,931.79
2018-11-21T00:35:28.447Z,931.76
2018-11-21T00:36:36.420Z,931.84
2018-11-21T00:37:44.480Z,931.72
2018-11-21T00:38:52.527Z,931.75
2018-11-21T00:40:00.592Z,931.75
2018-11-21T00:41:08.744Z,931.77
2018-11-21T00:42:16.691Z,931.77
2018-11-21T00:43:24.761Z,931.74
2018-11-21T00:44:32.818Z,931.73
2018-11-21T00:45:40.966Z,931.75
2018-11-21T00:46:49.014Z,931.78
2018-11-21T00:47:56.982Z,931.81
2018-11-21T00:49:05.042Z,931.80
2018-11-21T00:50:13.760Z,931.80
2018-11-21T00:51:21.150Z,931.83
2018-11-21T00:52:29.302Z,931.86
2018-11-21T00:53:37.253Z,931.87
2018-11-21T00:54:45.314Z,931.94
2018-11-21T00:55:53.376Z,931.93
2018-11-21T00:57:01.435Z,931.96
2018-11-21T00:58:09.541Z,931.94
2018-11-21T00:59:17.565Z,931.94
2018-11-21T01:00:25.607Z,931.97
2018-11-21T01:01:33.727Z,932.02
2018-11-21T01:02:41.799Z,932.02
2018-11-21T01:03:49.788Z,932.08
2018-11-21T01:04:57.820Z,932.09
2018-11-21T01:06:05.894Z,932.06
2018-11-21T01:07:13.922Z,932.12
2018-11-21T01:08:22.118Z,932.09
2018-11-21T01:09:30.062Z,932.10
2018-11-21T01:10:38.108Z,932.13
2018-11-21T01:11:46.170Z,932.20
2018-11-21T01:12:54.300Z,932.21
2018-11-21T01:14:02.286Z,932.23
2018-11-21T01:15:10.319Z,932.26
2018-11-21T01:16:18.410Z,932.25
2018-11-21T01:17:26.529Z,932.22
2018-11-21T01:18:34.614Z,932.18
2018-11-21T01:19:42.553Z,932.22
2018-11-21T01:20:50.611Z,932.16
2018-11-21T01:21:58.670Z,932.21
2018-11-21T01:23:06.728Z,932.22
2018-11-21T01:24:14.898Z,932.19
2018-11-21T01:25:22.834Z,932.27
2018-11-21T01:26:30.887Z,932.28
2018-11-21T01:27:38.948Z,932.22
2018-11-21T01:28:47.002Z,932.22
2018-11-21T01:29:55.151Z,932.24
2018-11-21T01:31:03.110Z,932.23
2018-11-21T01:32:11.159Z,932.23
2018-11-21T01:33:19.297Z,932.32
2018-11-21T01:34:27.290Z,932.30
2018-11-21T01:35:35.437Z,932.23
2018-11-21T01:36:43.395Z,932.27
2018-11-21T01:37:51.446Z,932.23
2018-11-21T01:38:59.505Z,932.23
2018-11-21T01:40:07.571Z,932.24
2018-11-21T01:41:15.716Z,932.26
2018-11-21T01:42:23.658Z,932.24
2018-11-21T01:43:31.728Z,932.18
2018-11-21T01:44:39.792Z,932.22
2018-11-21T01:45:47.849Z,932.21
2018-11-21T01:46:55.996Z,932.21
2018-11-21T01:48:03.971Z,932.34
2018-11-21T01:49:12.014Z,932.29
2018-11-21T01:50:20.077Z,932.32
2018-11-21T01:51:28.172Z,932.36
2018-11-21T01:52:36.287Z,932.35
2018-11-21T01:53:44.215Z,932.35
2018-11-21T01:54:52.293Z,932.32
2018-11-21T01:56:00.363Z,932.37
2018-11-21T01:57:08.402Z,932.38
2018-11-21T01:58:16.534Z,932.36
2018-11-21T01:59:24.551Z,932.35
2018-11-21T02:00:32.572Z,932.34
2018-11-21T02:01:40.635Z,932.33
2018-11-21T02:02:48.786Z,932.34
2018-11-21T02:03:56.742Z,932.36
2018-11-21T02:05:04.798Z,932.35
2018-11-21T02:06:12.868Z,932.33
2018-11-21T02:07:20.927Z,932.31
2018-11-21T02:08:29.066Z,932.34
2018-11-21T02:09:37.023Z,932.34
2018-11-21T02:10:45.089Z,932.31
2018-11-21T02:11:53.143Z,932.29
2018-11-21T02:13:01.196Z,932.30
2018-11-21T02:14:09.359Z,932.30
2018-11-21T02:15:17.300Z,932.30
2018-11-21T02:16:25.372Z,932.28
2018-11-21T02:17:33.488Z,932.26
2018-11-21T02:18:41.506Z,932.25
2018-11-21T02:19:49.622Z,932.28
2018-11-21T02:20:57.566Z,932.28
2018-11-21T02:22:05.622Z,932.26
2018-11-21T02:23:13.674Z,932.33
2018-11-21T02:24:21.756Z,932.33
2018-11-21T02:25:29.901Z,932.39
2018-11-21T02:26:37.864Z,932.40
2018-11-21T02:27:45.934Z,932.41
2018-11-21T02:28:53.971Z,932.42
2018-11-21T02:30:02.032Z,932.42
2018-11-21T02:31:10.191Z,932.40
2018-11-21T02:32:18.145Z,932.40
2018-11-21T02:33:26.294Z,932.34
2018-11-21T02:34:34.265Z,932.34
2018-11-21T02:35:42.319Z,932.31
2018-11-21T02:36:50.469Z,932.29
2018-11-21T02:37:58.431Z,932.23
2018-11-21T02:39:06.472Z,932.26
2018-11-21T02:40:14.514Z,932.15
2018-11-21T02:41:22.587Z,932.16
2018-11-21T02:42:30.737Z,932.11
2018-11-21T02:43:38.704Z,932.14
2018-11-21T02:44:46.772Z,932.13
2018-11-21T02:45:54.830Z,932.11
2018-11-21T02:47:02.883Z,932.11
2018-11-21T02:48:11.017Z,932.06
2018-11-21T02:49:19.078Z,932.11
2018-11-21T02:50:27.029Z,932.13
2018-11-21T02:51:35.112Z,932.06
2018-11-21T02:52:43.208Z,932.12
2018-11-21T02:53:51.208Z,932.06
2018-11-21T02:54:59.256Z,932.07
2018-11-21T02:56:07.314Z,932.02
2018-11-21T02:57:15.375Z,932.08
2018-11-21T02:58:23.521Z,932.04
2018-11-21T02:59:31.479Z,932.03
2018-11-21T03:00:39.523Z,931.96
2018-11-21T03:01:47.611Z,931.95
2018-11-21T03:02:55.655Z,931.96
2018-11-21T03:04:03.780Z,932.01
2018-11-21T03:05:11.871Z,931.96
2018-11-21T03:06:19.824Z,932.00
2018-11-21T03:07:27.887Z,931.99
2018-11-21T03:08:35.922Z,931.98
2018-11-21T03:09:44.093Z,932.03
2018-11-21T03:10:52.046Z,932.04
2018-11-21T03:12:00.109Z,932.02
2018-11-21T03:13:08.152Z,932.09
2018-11-21T03:14:16.202Z,932.09
2018-11-21T03:15:24.393Z,932.17
2018-11-21T03:16:32.324Z,932.21
2018-11-21T03:17:40.382Z,932.27
2018-11-21T03:18:48.444Z,932.25
2018-11-21T03:19:56.481Z,932.25
2018-11-21T03:21:04.637Z,932.29
2018-11-21T03:22:12.604Z,932.29
2018-11-21T03:23:20.673Z,932.36
2018-11-21T03:24:28.723Z,932.36
2018-11-21T03:25:36.770Z,932.44
2018-11-21T03:26:44.912Z,932.40
2018-11-21T03:27:52.869Z,932.42
2018-11-21T03:29:00.930Z,932.44
2018-11-21T03:30:09.505Z,932.49
2018-11-21T03:31:17.055Z,932.50
2018-11-21T03:32:25.196Z,932.54
2018-11-21T03:33:33.156Z,932.53
2018-11-21T03:34:41.207Z,932.53
2018-11-21T03:35:49.269Z,932.55
2018-11-21T03:36:57.417Z,932.57
2018-11-21T03:38:05.472Z,932.60
2018-11-21T03:39:13.428Z,932.68
2018-11-21T03:40:21.499Z,932.65
2018-11-21T03:41:29.541Z,932.66
2018-11-21T03:42:37.649Z,932.71
2018-11-21T03:43:45.657Z,932.69
2018-11-21T03:44:53.690Z,932.65
2018-11-21T03:46:01.761Z,932.64
2018-11-21T03:47:09.836Z,932.66
2018-11-21T03:48:17.986Z,932.61
2018-11-21T03:49:25.958Z,932.61
2018-11-21T03:50:33.984Z,932.67
2018-11-21T03:51:42.043Z,932.76
2018-11-21T03:52:50.205Z,932.79
2018-11-21T03:53:58.168Z,932.83
2018-11-21T03:55:06.204Z,932.93
2018-11-21T03:56:14.257Z,932.96
2018-11-21T03:57:22.322Z,932.99
2018-11-21T03:58:30.387Z,932.99
2018-11-21T03:59:38.428Z,932.98
2018-11-21T04:00:46.503Z,932.99
2018-11-21T04:01:54.621Z,933.01
2018-11-21T04:03:02.708Z,932.95
2018-11-21T04:04:10.673Z,932.99
2018-11-21T04:05:18.724Z,933.02
2018-11-21T04:06:26.786Z,933.02
2018-11-21T04:07:34.875Z,933.10
2018-11-21T04:08:42.984Z,933.11
2018-11-21T04:09:50.942Z,933.16
2018-11-21T04:10:59.000Z,933.20
2018-11-21T04:12:07.041Z,933.23
2018-11-21T04:13:15.114Z,933.22
2018-11-21T04:14:23.258Z,933.29
2018-11-21T04:15:31.229Z,933.24
2018-11-21T04:16:39.280Z,933.32
2018-11-21T04:17:47.351Z,933.37
2018-11-21T04:18:55.412Z,933.40
2018-11-21T04:20:03.538Z,933.40
2018-11-21T04:21:11.512Z,933.39
2018-11-21T04:22:19.560Z,933.41
2018-11-21T04:23:27.708Z,933.40
2018-11-21T04:24:35.678Z,933.41
2018-11-21T04:25:43.802Z,933.37
2018-11-21T04:26:51.793Z,933.43
2018-11-21T04:27:59.844Z,933.45
2018-11-21T04:29:07.922Z,933.48
2018-11-21T04:30:15.970Z,933.48
2018-11-21T04:31:24.111Z,933.52
2018-11-21T04:32:32.097Z,933.52
2018-11-21T04:33:40.167Z,933.55
2018-11-21T04:34:48.195Z,933.59
2018-11-21T04:35:56.246Z,933.58
2018-11-21T04:37:04.388Z,933.58
2018-11-21T04:38:12.455Z,933.58
2018-11-21T04:39:20.488Z,933.56
2018-11-21T04:40:28.459Z,933.58
2018-11-21T04:41:36.533Z,933.60
2018-11-21T04:42:44.666Z,933.62
2018-11-21T04:43:52.623Z,933.60
2018-11-21T04:45:00.694Z,933.62
2018-11-21T04:46:08.750Z,933.64
2018-11-21T04:47:16.945Z,933.64
2018-11-21T04:48:24.959Z,933.64
2018-11-21T04:49:32.903Z,933.65
2018-11-21T04:50:41.001Z,933.68
2018-11-21T04:51:49.014Z,933.66
2018-11-21T04:52:57.187Z,933.68
2018-11-21T04:54:05.246Z,933.66
2018-11-21T04:55:13.193Z,933.65
2018-11-21T04:56:21.255Z,933.68
2018-11-21T04:57:29.316Z,933.66
2018-11-21T04:58:37.483Z,933.71
2018-11-21T04:59:45.417Z,933.69
2018-11-21T05:00:53.459Z,933.70
2018-11-21T05:02:01.533Z,933.66
2018-11-21T05:03:09.602Z,933.67
2018-11-21T05:04:17.703Z,933.66
2018-11-21T05:05:25.708Z,933.66
2018-11-21T05:06:33.734Z,933.67
2018-11-21T05:07:41.828Z,933.69
2018-11-21T05:08:49.894Z,933.72
2018-11-21T05:09:58.034Z,933.76
2018-11-21T05:11:06.408Z,933.76
2018-11-21T05:12:14.039Z,933.80
2018-11-21T05:13:22.131Z,933.79
2018-11-21T05:14:30.171Z,933.80
2018-11-21T05:15:38.324Z,933.85
2018-11-21T05:16:46.286Z,933.82
2018-11-21T05:17:54.333Z,933.82
2018-11-21T05:19:02.399Z,933.79
2018-11-21T05:20:10.436Z,933.85
2018-11-21T05:21:18.610Z,933.81
2018-11-21T05:22:26.582Z,933.83
2018-11-21T05:23:34.628Z,933.83
2018-11-21T05:24:42.681Z,933.86
2018-11-21T05:25:50.823Z,933.86
2018-11-21T05:26:58.895Z,933.85
2018-11-21T05:28:06.857Z,933.86
2018-11-21T05:29:14.916Z,933.88
2018-11-21T05:30:22.971Z,933.89
2018-11-21T05:31:30.999Z,933.91
2018-11-21T05:32:39.171Z,933.87
2018-11-21T05:33:47.133Z,933.87
2018-11-21T05:34:55.851Z,933.85
2018-11-21T05:36:03.237Z,933.82
2018-11-21T05:37:11.290Z,933.82
2018-11-21T05:38:21.101Z,933.87
2018-11-21T05:39:27.425Z,933.85
2018-11-21T05:40:35.511Z,933.87
2018-11-21T05:41:44.229Z,933.93
2018-11-21T05:42:51.579Z,933.90
2018-11-21T05:43:59.731Z,933.95
2018-11-21T05:45:07.688Z,933.93
2018-11-21T05:46:15.746Z,933.91
2018-11-21T05:47:23.777Z,933.95
2018-11-21T05:48:31.875Z,934.00
2018-11-21T05:49:40.021Z,933.98
2018-11-21T05:50:47.966Z,933.95
2018-11-21T05:51:56.037Z,933.94
2018-11-21T05:53:04.080Z,933.90
2018-11-21T05:54:12.133Z,933.96
2018-11-21T05:55:20.300Z,933.88
2018-11-21T05:56:28.384Z,933.92
2018-11-21T05:57:36.414Z,933.92
2018-11-21T05:58:44.610Z,933.99
2018-11-21T05:59:52.424Z,934.02
2018-11-21T06:01:00.561Z,934.07
2018-11-21T06:02:08.542Z,934.11
2018-11-21T06:03:16.587Z,934.16
2018-11-21T06:04:24.642Z,934.15
2018-11-21T06:05:32.712Z,934.22
2018-11-21T06:06:40.851Z,934.23
2018-11-21T06:07:48.809Z,934.23
2018-11-21T06:08:56.867Z,934.26
2018-11-21T06:10:04.913Z,934.25
2018-11-21T06:11:12.994Z,934.26
2018-11-21T06:12:21.121Z,934.30
2018-11-21T06:13:29.103Z,934.31
2018-11-21T06:14:37.149Z,934.31
2018-11-21T06:15:45.213Z,934.29
2018-11-21T06:16:53.272Z,934.29
2018-11-21T06:18:01.418Z,934.33
2018-11-21T06:19:09.378Z,934.28
2018-11-21T06:20:18.952Z,934.27
2018-11-21T06:21:25.493Z,934.21
2018-11-21T06:22:33.625Z,934.22
2018-11-21T06:23:41.600Z,934.23
2018-11-21T06:24:49.656Z,934.22
2018-11-21T06:25:57.718Z,934.21
2018-11-21T06:27:05.769Z,934.22
2018-11-21T06:28:13.902Z,934.30
2018-11-21T06:29:21.884Z,934.29
2018-11-21T06:30:29.949Z,934.35
2018-11-21T06:31:38.004Z,934.34
2018-11-21T06:32:46.098Z,934.40
2018-11-21T06:33:54.189Z,934.35
2018-11-21T06:35:02.157Z,934.43
2018-11-21T06:36:10.237Z,934.38
2018-11-21T06:37:18.284Z,934.37
2018-11-21T06:38:26.336Z,934.38
2018-11-21T06:39:34.506Z,934.39
2018-11-21T06:40:42.463Z,934.48
2018-11-21T06:41:50.496Z,934.48
2018-11-21T06:42:58.644Z,934.47
2018-11-21T06:44:06.615Z,934.52
2018-11-21T06:45:15.119Z,934.57
2018-11-21T06:46:22.733Z,934.54
2018-11-21T06:47:30.791Z,934.54
2018-11-21T06:48:38.846Z,934.54
2018-11-21T06:49:46.922Z,934.53
2018-11-21T06:50:55.047Z,934.56
2018-11-21T06:52:03.020Z,934.61
2018-11-21T06:53:11.077Z,934.65
2018-11-21T06:54:19.126Z,934.67
2018-11-21T06:55:27.195Z,934.66
2018-11-21T06:56:35.344Z,934.68
2018-11-21T06:57:43.293Z,934.69
2018-11-21T06:58:55.074Z,934.74
2018-11-21T06:59:59.404Z,934.78
2018-11-21T07:01:07.503Z,934.79
2018-11-21T07:02:15.615Z,934.76
2018-11-21T07:03:23.574Z,934.77
2018-11-21T07:04:31.645Z,934.78
2018-11-21T07:05:39.706Z,934.84
2018-11-21T07:06:47.747Z,934.83
2018-11-21T07:07:55.910Z,934.87
2018-11-21T07:09:03.855Z,934.89
2018-11-21T07:10:11.933Z,934.91
2018-11-21T07:11:19.984Z,934.96
2018-11-21T07:12:28.128Z,935.00
2018-11-21T07:13:36.089Z,935.00
2018-11-21T07:14:44.247Z,934.99
2018-11-21T07:15:52.224Z,935.03
2018-11-21T07:17:00.265Z,935.05
2018-11-21T07:18:08.432Z,935.04
2018-11-21T07:19:16.368Z,935.07
2018-11-21T07:20:24.419Z,935.08
2018-11-21T07:21:32.487Z,935.12
2018-11-21T07:22:40.582Z,935.18
2018-11-21T07:23:48.611Z,935.17
2018-11-21T07:24:56.661Z,935.17
2018-11-21T07:26:04.720Z,935.18
2018-11-21T07:27:12.779Z,935.18
2018-11-21T07:28:20.937Z,935.21
2018-11-21T07:29:34.444Z,935.26
2018-11-21T07:30:37.031Z,935.28
2018-11-21T07:31:45.012Z,935.31
2018-11-21T07:32:53.063Z,935.30
2018-11-21T07:34:01.219Z,935.33
2018-11-21T07:35:09.190Z,935.32
2018-11-21T07:36:17.243Z,935.37
2018-11-21T07:37:25.290Z,935.38
2018-11-21T07:38:33.327Z,935.37
2018-11-21T07:39:41.510Z,935.33
2018-11-21T07:40:49.462Z,935.37
2018-11-21T07:41:57.515Z,935.37
2018-11-21T07:43:05.575Z,935.33
2018-11-21T07:44:13.617Z,935.31
2018-11-21T07:45:21.753Z,935.32
2018-11-21T07:46:29.839Z,935.34
2018-11-21T07:47:37.826Z,935.29
2018-11-21T07:48:45.872Z,935.30
2018-11-21T07:49:53.900Z,935.35
2018-11-21T07:51:02.413Z,935.36
2018-11-21T07:52:10.029Z,935.37
2018-11-21T07:53:18.096Z,935.40
2018-11-21T07:54:26.140Z,935.43
2018-11-21T07:55:34.195Z,935.46
2018-11-21T07:56:42.368Z,935.50
2018-11-21T07:57:50.322Z,935.53
2018-11-21T07:58:58.374Z,935.51
2018-11-21T08:00:06.439Z,935.48
2018-11-21T08:01:14.491Z,935.55
2018-11-21T08:02:22.634Z,935.53
2018-11-21T08:03:30.606Z,935.54
2018-11-21T08:04:38.671Z,935.56
2018-11-21T08:05:46.721Z,935.61
2018-11-21T08:06:54.780Z,935.60
2018-11-21T08:08:02.931Z,935.61
2018-11-21T08:09:10.891Z,935.67
2018-11-21T08:10:18.950Z,935.72
2018-11-21T08:11:27.012Z,935.67
2018-11-21T08:12:35.154Z,935.71
2018-11-21T08:13:43.114Z,935.72
2018-11-21T08:14:51.181Z,935.66
2018-11-21T08:15:59.239Z,935.67
2018-11-21T08:17:07.290Z,935.70
2018-11-21T08:18:15.437Z,935.70
2018-11-21T08:19:23.396Z,935.75
2018-11-21T08:20:31.469Z,935.79
2018-11-21T08:21:39.657Z,935.79
2018-11-21T08:22:47.577Z,935.80
2018-11-21T08:23:55.799Z,935.76
2018-11-21T08:25:03.683Z,935.74
2018-11-21T08:26:11.764Z,935.69
2018-11-21T08:27:19.825Z,935.64
2018-11-21T08:28:27.859Z,935.63
2018-11-21T08:29:36.023Z,935.62
2018-11-21T08:30:43.998Z,935.60
2018-11-21T08:31:52.054Z,935.67
2018-11-21T08:33:00.190Z,935.66
2018-11-21T08:34:08.156Z,935.74
2018-11-21T08:35:16.312Z,935.72
2018-11-21T08:36:24.253Z,935.72
2018-11-21T08:37:32.331Z,935.73
2018-11-21T08:38:40.394Z,935.75
2018-11-21T08:39:48.438Z,935.76
2018-11-21T08:40:56.602Z,935.79
2018-11-21T08:42:04.559Z,935.79
2018-11-21T08:43:12.614Z,935.84
2018-11-21T08:44:20.682Z,935.88
2018-11-21T08:45:28.721Z,935.88
2018-11-21T08:46:36.893Z,935.86
2018-11-21T08:47:44.950Z,935.92
2018-11-21T08:48:52.916Z,935.95
2018-11-21T08:50:00.978Z,935.98
2018-11-21T08:51:09.016Z,936.04
2018-11-21T08:52:17.188Z,936.09
2018-11-21T08:53:25.143Z,936.11
2018-11-21T08:54:33.185Z,936.10
2018-11-21T08:55:41.247Z,936.09
2018-11-21T08:56:49.311Z,936.03
2018-11-21T08:57:57.472Z,935.98
2018-11-21T08:59:05.412Z,935.91
2018-11-21T09:00:13.461Z,935.87
2018-11-21T09:01:21.525Z,935.87
2018-11-21T09:02:29.733Z,935.86
2018-11-21T09:03:37.692Z,935.97
2018-11-21T09:04:45.712Z,935.98
2018-11-21T09:05:53.753Z,936.00
2018-11-21T09:07:01.846Z,935.99
2018-11-21T09:08:09.997Z,936.01
2018-11-21T09:09:17.942Z,936.00
2018-11-21T09:11:34.068Z,936.04
2018-11-21T09:12:42.115Z,936.02
2018-11-21T09:13:53.130Z,936.05
2018-11-21T09:14:58.328Z,936.07
2018-11-21T09:16:06.293Z,935.99
2018-11-21T09:17:14.353Z,935.94
2018-11-21T09:18:22.396Z,935.95
2018-11-21T09:19:30.546Z,935.97
2018-11-21T09:20:38.528Z,936.02
2018-11-21T09:21:46.583Z,936.03
2018-11-21T09:22:54.634Z,936.10
2018-11-21T09:24:02.683Z,936.12
2018-11-21T09:25:10.836Z,936.17
2018-11-21T09:26:18.810Z,936.16
2018-11-21T09:27:26.864Z,936.16
2018-11-21T09:28:34.925Z,936.16
2018-11-21T09:29:42.981Z,936.16
2018-11-21T09:30:51.122Z,936.23
2018-11-21T09:31:59.133Z,936.28
2018-11-21T09:33:07.170Z,936.36
2018-11-21T09:34:15.217Z,936.38
2018-11-21T09:35:23.270Z,936.41
2018-11-21T09:36:31.432Z,936.39
2018-11-21T09:37:39.388Z,936.37
2018-11-21T09:38:47.593Z,936.37
2018-11-21T09:39:55.510Z,936.38
2018-11-21T09:41:04.469Z,936.38
2018-11-21T09:42:11.709Z,936.39
2018-11-21T09:43:19.682Z,936.36
2018-11-21T09:44:27.735Z,936.35
2018-11-21T09:45:35.788Z,936.34
2018-11-21T09:46:43.927Z,936.32
2018-11-21T09:47:51.991Z,936.32
2018-11-21T09:48:59.971Z,936.30
2018-11-21T09:50:08.016Z,936.33
2018-11-21T09:51:16.095Z,936.35
2018-11-21T09:52:24.115Z,936.36
2018-11-21T09:53:32.200Z,936.42
2018-11-21T09:54:40.260Z,936.43
2018-11-21T09:55:48.356Z,936.37
2018-11-21T09:56:56.381Z,936.41
2018-11-21T09:58:04.513Z,936.40
2018-11-21T09:59:12.495Z,936.41
2018-11-21T10:00:20.559Z,936.47
2018-11-21T10:01:28.611Z,936.52
2018-11-21T10:02:36.757Z,936.54
2018-11-21T10:03:44.723Z,936.56
2018-11-21T10:04:52.788Z,936.56
2018-11-21T10:06:00.843Z,936.57
2018-11-21T10:07:08.900Z,936.57
2018-11-21T10:08:17.051Z,936.58
2018-11-21T10:09:25.028Z,936.56
2018-11-21T10:10:33.075Z,936.55
2018-11-21T10:11:41.125Z,936.57
2018-11-21T10:12:49.186Z,936.51
2018-11-21T10:13:57.338Z,936.49
2018-11-21T10:15:05.309Z,936.51
2018-11-21T10:16:13.352Z,936.49
2018-11-21T10:17:21.421Z,936.48
2018-11-21T10:18:29.480Z,936.50
2018-11-21T10:19:37.648Z,936.53
2018-11-21T10:20:45.589Z,936.58
2018-11-21T10:21:53.627Z,936.60
2018-11-21T10:23:01.709Z,936.60
2018-11-21T10:24:09.772Z,936.57
2018-11-21T10:25:17.926Z,936.54
2018-11-21T10:26:25.899Z,936.57
2018-11-21T10:27:33.927Z,936.56
2018-11-21T10:28:42.015Z,936.62
2018-11-21T10:29:50.073Z,936.61
2018-11-21T10:30:58.212Z,936.61
2018-11-21T10:32:06.190Z,936.61
2018-11-21T10:33:14.288Z,936.63
2018-11-21T10:34:22.293Z,936.65
2018-11-21T10:35:30.346Z,936.61
2018-11-21T10:36:38.510Z,936.64
2018-11-21T10:37:46.464Z,936.66
2018-11-21T10:38:54.529Z,936.65
2018-11-21T10:40:02.583Z,936.66
2018-11-21T10:41:10.631Z,936.63
2018-11-21T10:42:18.792Z,936.61
2018-11-21T10:43:28.319Z,936.57
2018-11-21T10:44:34.825Z,936.55
2018-11-21T10:45:42.883Z,936.51
2018-11-21T10:46:50.927Z,936.50
2018-11-21T10:47:59.088Z,936.50
2018-11-21T10:49:07.057Z,936.48
2018-11-21T10:50:15.119Z,936.46
2018-11-21T10:51:23.176Z,936.50
2018-11-21T10:52:31.565Z,936.54
2018-11-21T10:53:39.285Z,936.54
2018-11-21T10:54:47.328Z,936.52
2018-11-21T10:55:55.393Z,936.51
2018-11-21T10:57:03.430Z,936.53
2018-11-21T10:58:11.627Z,936.55
2018-11-21T10:59:19.573Z,936.57
2018-11-21T11:00:27.650Z,936.58
2018-11-21T11:01:35.695Z,936.62
2018-11-21T11:02:43.818Z,936.66
2018-11-21T11:03:51.915Z,936.67
2018-11-21T11:04:59.873Z,936.62
2018-11-21T11:06:07.934Z,936.59
2018-11-21T11:07:15.981Z,936.58
2018-11-21T11:08:24.036Z,936.61
2018-11-21T11:09:32.213Z,936.58
2018-11-21T11:10:40.175Z,936.57
2018-11-21T11:11:48.221Z,936.53
2018-11-21T11:12:56.282Z,936.53
2018-11-21T11:14:04.321Z,936.48
2018-11-21T11:15:12.497Z,936.49
2018-11-21T11:16:20.462Z,936.48
2018-11-21T11:17:28.516Z,936.51
2018-11-21T11:18:36.634Z,936.48
2018-11-21T11:19:44.615Z,936.52
2018-11-21T11:20:52.777Z,936.53
2018-11-21T11:22:00.753Z,936.50
2018-11-21T11:23:08.816Z,936.48
2018-11-21T11:24:16.868Z,936.52
2018-11-21T11:25:24.918Z,936.55
2018-11-21T11:26:33.061Z,936.53
2018-11-21T11:27:41.047Z,936.57
2018-11-21T11:28:49.104Z,936.62
2018-11-21T11:29:57.156Z,936.67
2018-11-21T11:31:05.207Z,936.73
2018-11-21T11:32:13.342Z,936.76
2018-11-21T11:33:21.333Z,936.71
2018-11-21T11:34:29.468Z,936.75
2018-11-21T11:35:37.444Z,936.73
2018-11-21T11:36:45.508Z,936.74
2018-11-21T11:37:53.613Z,936.76
2018-11-21T11:39:01.615Z,936.82
2018-11-21T11:40:09.691Z,936.80
2018-11-21T11:41:17.751Z,936.80
2018-11-21T11:42:25.805Z,936.79
2018-11-21T11:43:33.849Z,936.82
2018-11-21T11:44:41.913Z,936.84
2018-11-21T11:45:49.975Z,936.84
2018-11-21T11:46:58.041Z,936.86
2018-11-21T11:48:06.201Z,936.92
2018-11-21T11:49:14.123Z,936.94
2018-11-21T11:50:22.303Z,936.93
2018-11-21T11:51:30.279Z,936.94
2018-11-21T11:52:38.410Z,936.97
2018-11-21T11:53:46.383Z,936.97
2018-11-21T11:54:54.430Z,936.99
2018-11-21T11:56:02.510Z,937.01
2018-11-21T11:57:10.559Z,936.98
2018-11-21T11:58:18.716Z,936.99
2018-11-21T11:59:26.682Z,936.97
2018-11-21T12:00:34.720Z,936.95
2018-11-21T12:01:42.798Z,936.89
2018-11-21T12:02:50.858Z,936.85
2018-11-21T12:03:58.996Z,936.84
2018-11-21T12:05:06.944Z,936.83
2018-11-21T12:06:15.127Z,936.86
2018-11-21T12:07:23.089Z,936.84
2018-11-21T12:08:31.152Z,936.87
2018-11-21T12:09:39.307Z,936.92
2018-11-21T12:10:47.261Z,936.98
2018-11-21T12:11:55.335Z,936.99
2018-11-21T12:13:03.373Z,937.01
2018-11-21T12:14:11.439Z,937.01
2018-11-21T12:15:19.589Z,937.02
2018-11-21T12:16:27.570Z,937.01
2018-11-21T12:17:35.771Z,936.94
2018-11-21T12:18:43.650Z,936.93
2018-11-21T12:19:51.733Z,936.98
2018-11-21T12:20:59.893Z,936.97
2018-11-21T12:22:07.984Z,937.01
2018-11-21T12:23:15.913Z,937.04
2018-11-21T12:24:23.965Z,937.07
2018-11-21T12:25:32.011Z,937.14
2018-11-21T12:26:40.178Z,937.12
2018-11-21T12:27:48.141Z,937.09
2018-11-21T12:28:56.200Z,937.08
2018-11-21T12:30:04.257Z,937.11
2018-11-21T12:31:12.331Z,937.09
2018-11-21T12:32:20.471Z,937.11
2018-11-21T12:33:28.428Z,937.11
2018-11-21T12:34:36.486Z,937.10
2018-11-21T12:35:44.547Z,937.07
2018-11-21T12:36:52.611Z,937.06
2018-11-21T12:38:00.804Z,937.12
2018-11-21T12:39:08.710Z,937.15
2018-11-21T12:40:16.789Z,937.11
2018-11-21T12:41:24.839Z,937.13
2018-11-21T12:42:33.013Z,937.07
2018-11-21T12:43:40.963Z,937.07
2018-11-21T12:44:49.019Z,937.06
2018-11-21T12:45:57.083Z,937.03
2018-11-21T12:47:05.130Z,937.02
2018-11-21T12:48:13.237Z,937.06
2018-11-21T12:49:21.251Z,937.06
2018-11-21T12:50:29.325Z,937.07
2018-11-21T12:51:37.377Z,937.08
2018-11-21T12:52:45.524Z,937.06
2018-11-21T12:53:53.466Z,937.06
2018-11-21T12:55:01.543Z,937.05
2018-11-21T12:56:09.606Z,937.03
2018-11-21T12:57:17.667Z,937.01
2018-11-21T12:58:25.770Z,937.01
2018-11-21T12:59:33.780Z,937.07
2018-11-21T13:00:41.849Z,937.09
2018-11-21T13:01:49.901Z,937.04
2018-11-21T13:02:58.044Z,937.06
2018-11-21T13:04:06.016Z,937.09
2018-11-21T13:05:14.073Z,937.06
2018-11-21T13:06:22.118Z,937.11
2018-11-21T13:07:30.277Z,937.13
2018-11-21T13:08:38.352Z,937.08
2018-11-21T13:09:46.322Z,937.11
2018-11-21T13:10:54.441Z,937.12
2018-11-21T13:12:02.421Z,937.11
2018-11-21T13:13:10.475Z,937.12
2018-11-21T13:14:18.632Z,937.14
2018-11-21T13:15:26.608Z,937.14
2018-11-21T13:16:34.670Z,937.17
2018-11-21T13:17:42.718Z,937.17
2018-11-21T13:18:50.784Z,937.20
2018-11-21T13:19:58.952Z,937.14
2018-11-21T13:21:06.902Z,937.19
2018-11-21T13:22:14.964Z,937.18
2018-11-21T13:23:23.122Z,937.18
2018-11-21T13:24:31.069Z,937.19
2018-11-21T13:25:39.228Z,937.16
2018-11-21T13:26:47.219Z,937.17
2018-11-21T13:27:55.267Z,937.14
2018-11-21T13:29:03.298Z,937.13
2018-11-21T13:30:11.373Z,937.12
2018-11-21T13:31:19.511Z,937.14
2018-11-21T13:32:27.488Z,937.12
2018-11-21T13:33:35.680Z,937.12
2018-11-21T13:34:43.586Z,937.16
2018-11-21T13:35:51.665Z,937.19
2018-11-21T13:36:59.799Z,937.25
2018-11-21T13:38:07.871Z,937.29
2018-11-21T13:39:15.837Z,937.27
2018-11-21T13:40:23.876Z,937.30
2018-11-21T13:41:31.957Z,937.31
2018-11-21T13:42:40.073Z,937.33
2018-11-21T13:43:48.090Z,937.34
2018-11-21T13:44:56.137Z,937.32
2018-11-21T13:46:04.175Z,937.33
2018-11-21T13:47:12.250Z,937.40
2018-11-21T13:48:20.391Z,937.36
2018-11-21T13:49:28.360Z,937.38
2018-11-21T13:50:36.427Z,937.35
2018-11-21T13:51:44.487Z,937.36
2018-11-21T13:52:52.636Z,937.37
2018-11-21T13:54:00.660Z,937.41
2018-11-21T13:55:08.666Z,937.46
2018-11-21T13:56:16.721Z,937.47
2018-11-21T13:57:24.771Z,937.54
2018-11-21T13:58:32.830Z,937.54
2018-11-21T13:59:40.903Z,937.53
2018-11-21T14:00:48.947Z,937.55
2018-11-21T14:01:57.041Z,937.56
2018-11-21T14:03:05.155Z,937.59
2018-11-21T14:04:13.147Z,937.63
2018-11-21T14:05:21.185Z,937.64
2018-11-21T14:06:29.236Z,937.64
2018-11-21T14:07:37.378Z,937.67
2018-11-21T14:08:45.454Z,937.68
2018-11-21T14:09:53.396Z,937.67